Thursday, January 17, 2019, 7:26 PM CST
Back to Local

KOMA, Omaha Eppley Airfield

Location: Omaha, NE, United States Lat: 41.3
Local Time: 7:26 PM CST ( 1:26 GMT) Lon: -95.9
Time Zone: US/Central Elev: 984 ft

Show me the last for .
Show Decoded

2019-01-17 18:52 METAR KOMA 180052Z 02004KT 7SM OVC024 M01/M05 A3013 RMK AO2 SLP215 T10111050 =
2019-01-17 17:52 METAR KOMA 172352Z 02006KT 7SM OVC025 M01/M05 A3013 RMK AO2 SLP214 4/003
                 T10111050 11006 21017 53006 =
2019-01-17 16:52 METAR KOMA 172252Z 02004KT 7SM OVC026 M01/M05 A3012 RMK AO2 SLP212 T10111050 =
2019-01-17 15:52 METAR KOMA 172152Z 02006KT 10SM OVC026 M01/M05 A3011 RMK AO2 SLP208 T10111050 =
2019-01-17 14:52 METAR KOMA 172052Z 02006KT 10SM OVC020 M01/M06 A3011 RMK AO2 SLP208 T10061056
                 56009 =
2019-01-17 13:52 METAR KOMA 171952Z 03005KT 10SM BKN019 OVC027 M01/M06 A3011 RMK AO2 SLP209
                 T10111056 =
2019-01-17 12:52 METAR KOMA 171852Z 35003KT 9SM FEW020 OVC026 M01/M06 A3013 RMK AO2 SLP216
                 T10111061 =
2019-01-17 11:52 METAR KOMA 171752Z 00000KT 9SM OVC021 M02/M07 A3014 RMK AO2 SLP218 4/003 933004
                 60000 T10171067 11017 21039 50006 =
2019-01-17 10:52 METAR KOMA 171652Z 35003KT 8SM OVC028 M02/M06 A3015 RMK AO2 SLP221 T10221061 =
2019-01-17 09:52 METAR KOMA 171552Z 35004KT 8SM OVC020 M03/M07 A3013 RMK AO2 SLP216 T10331067 =
2019-01-17 08:52 METAR KOMA 171452Z 35005KT 8SM BKN023 OVC028 M03/M07 A3012 RMK AO2 SLP212 60000
                 T10331067 53006 =
2019-01-17 08:14 METAR KOMA 171414Z 36003KT 7SM BKN029 OVC037 M03/M06 A3011 RMK AO2 T10331061 =
2019-01-17 07:52 METAR KOMA 171352Z 00000KT 7SM SCT028 OVC038 M03/M06 A3011 RMK AO2 SLP210
                 T10331061 =
2019-01-17 07:26 METAR KOMA 171326Z 35003KT 6SM BR FEW007 BKN038 OVC049 M04/M06 A3011 RMK AO2
                 T10391061 =
2019-01-17 06:52 METAR KOMA 171252Z 34003KT 5SM BR FEW007 BKN025 OVC032 M04/M06 A3010 RMK AO2
                 SNE25 SLP206 P0000 T10391061 =
2019-01-17 05:52 METAR KOMA 171152Z 36006KT 5SM -SN BR BKN024 OVC044 M04/M06 A3010 RMK AO2 SLP206
                 4/003 P0000 60001 70001 T10391061 11039 21044 56006 =
2019-01-17 04:52 METAR KOMA 171052Z 33005KT 4SM -SN BR OVC027 M04/M06 A3011 RMK AO2 SNB50 SLP208
                 P0000 T10391061 =
2019-01-17 04:23 METAR KOMA 171023Z 34003KT 4SM BR BKN026 BKN036 OVC055 M04/M06 A3011 RMK AO2
                 T10391061 =
2019-01-17 03:52 METAR KOMA 170952Z 01003KT 4SM BR FEW026 SCT037 OVC060 M04/M06 A3011 RMK AO2
                 SNE46 SLP208 P0000 T10391061 =
2019-01-17 03:16 METAR KOMA 170916Z 36005KT 4SM -SN SCT012 BKN040 OVC060 M04/M06 A3012 RMK AO2
                 P0000 T10441061 =
2019-01-17 02:52 METAR KOMA 170852Z 33004KT 4SM -SN BKN012 BKN034 OVC040 M04/M06 A3012 RMK AO2
                 SLP212 P0000 60001 T10441061 56007 =
2019-01-17 01:52 METAR KOMA 170752Z 33005KT 3SM -SN BKN030 OVC039 M04/M07 A3012 RMK AO2 SLP213
                 P0000 T10441067 =
2019-01-17 01:28 METAR KOMA 170728Z 32004KT 2SM -SN OVC029 M04/M06 A3012 RMK AO2 P0000 T10441061
                 =
2019-01-17 01:12 METAR KOMA 170712Z 00000KT 1 1/2SM -SN BKN029 OVC041 M04/M06 A3012 RMK AO2 P0000
                 T10441061 =
2019-01-17 00:52 METAR KOMA 170652Z 00000KT 1 1/2SM -SN FEW006 SCT011 OVC039 M04/M06 A3012 RMK
                 AO2 SLP214 P0001 T10441061 =
2019-01-16 23:52 METAR KOMA 170552Z 35005KT 1 1/2SM -SN SCT006 BKN011 OVC030 M04/M07 A3014 RMK
                 AO2 SLP220 4/003 P0000 60000 T10441067 11044 21056 400001067 58006 =
2019-01-16 23:36 METAR KOMA 170536Z 35005KT 1 3/4SM -SN BKN006 BKN011 OVC030 M04/M07 A3014 RMK
                 AO2 P0000 T10441067 =
2019-01-16 22:52 METAR KOMA 170452Z 36006KT 2SM -SN OVC005 M04/M07 A3015 RMK AO2 SLP222 SNB03
                 P0000 T10441067 =
2019-01-16 22:37 METAR KOMA 170437Z 36004KT 2SM -SN BR OVC005 M04/M07 A3015 RMK AO2 SNB03 P0000
                 T10441067 =
2019-01-16 21:52 METAR KOMA 170352Z 34004KT 6SM BR OVC005 M04/M07 A3016 RMK AO2 SLP225 T10441072
                 =
2019-01-16 20:52 METAR KOMA 170252Z 00000KT 7SM OVC008 M04/M08 A3016 RMK AO2 SLP226 T10441078
                 55001 =
2019-01-16 19:52 METAR KOMA 170152Z 00000KT 10SM OVC008 M04/M08 A3016 RMK AO2 SLP225 CIG 007V009
                 T10441078 =

Support USWX by starting your Amazon purchase here.